sensor_id;sensor_type;location;lat;lon;timestamp;temperature;humidity
8475;DHT22;4274;52.012;8.448;2022-07-22T00:00:28;17.50;99.90
8475;DHT22;4274;52.012;8.448;2022-07-22T00:02:53;17.50;99.90
8475;DHT22;4274;52.012;8.448;2022-07-22T00:05:19;17.40;99.90
8475;DHT22;4274;52.012;8.448;2022-07-22T00:07:44;17.40;99.90
8475;DHT22;4274;52.012;8.448;2022-07-22T00:10:10;17.40;99.90
8475;DHT22;4274;52.012;8.448;2022-07-22T00:12:37;17.40;99.90
8475;DHT22;4274;52.012;8.448;2022-07-22T00:15:04;17.40;99.90
8475;DHT22;4274;52.012;8.448;2022-07-22T00:17:30;17.30;99.90
8475;DHT22;4274;52.012;8.448;2022-07-22T00:19:56;17.30;99.90
8475;DHT22;4274;52.012;8.448;2022-07-22T00:22:22;17.30;99.90
8475;DHT22;4274;52.012;8.448;2022-07-22T00:24:47;17.30;99.90
8475;DHT22;4274;52.012;8.448;2022-07-22T00:27:13;17.20;99.90
8475;DHT22;4274;52.012;8.448;2022-07-22T00:29:39;17.10;99.90
8475;DHT22;4274;52.012;8.448;2022-07-22T00:32:05;17.10;99.90
8475;DHT22;4274;52.012;8.448;2022-07-22T00:34:30;17.00;99.90
8475;DHT22;4274;52.012;8.448;2022-07-22T00:36:56;17.00;99.90
8475;DHT22;4274;52.012;8.448;2022-07-22T00:39:21;17.00;99.90
8475;DHT22;4274;52.012;8.448;2022-07-22T00:41:48;16.90;99.90
8475;DHT22;4274;52.012;8.448;2022-07-22T00:44:14;16.90;99.90
8475;DHT22;4274;52.012;8.448;2022-07-22T00:46:40;16.90;99.90
8475;DHT22;4274;52.012;8.448;2022-07-22T00:49:07;16.80;99.90
8475;DHT22;4274;52.012;8.448;2022-07-22T00:51:34;16.80;99.90
8475;DHT22;4274;52.012;8.448;2022-07-22T00:54:00;16.80;99.90
8475;DHT22;4274;52.012;8.448;2022-07-22T00:56:27;16.70;99.90
8475;DHT22;4274;52.012;8.448;2022-07-22T00:58:55;16.70;99.90
8475;DHT22;4274;52.012;8.448;2022-07-22T01:01:21;16.60;99.90
8475;DHT22;4274;52.012;8.448;2022-07-22T01:03:47;16.60;99.90
8475;DHT22;4274;52.012;8.448;2022-07-22T01:06:12;16.60;99.90
8475;DHT22;4274;52.012;8.448;2022-07-22T01:08:39;16.60;99.90
8475;DHT22;4274;52.012;8.448;2022-07-22T01:11:09;16.50;99.90
8475;DHT22;4274;52.012;8.448;2022-07-22T01:13:35;16.40;99.90
8475;DHT22;4274;52.012;8.448;2022-07-22T01:16:02;16.50;99.90
8475;DHT22;4274;52.012;8.448;2022-07-22T01:18:28;16.40;99.90
8475;DHT22;4274;52.012;8.448;2022-07-22T01:20:53;16.40;99.90
8475;DHT22;4274;52.012;8.448;2022-07-22T01:23:19;16.40;99.90
8475;DHT22;4274;52.012;8.448;2022-07-22T01:25:45;16.40;99.90
8475;DHT22;4274;52.012;8.448;2022-07-22T01:28:10;16.40;99.90
8475;DHT22;4274;52.012;8.448;2022-07-22T01:30:36;16.40;99.90
8475;DHT22;4274;52.012;8.448;2022-07-22T01:33:01;16.40;99.90
8475;DHT22;4274;52.012;8.448;2022-07-22T01:35:27;16.40;99.90
8475;DHT22;4274;52.012;8.448;2022-07-22T01:37:52;16.30;99.90
8475;DHT22;4274;52.012;8.448;2022-07-22T01:40:18;16.40;99.90
8475;DHT22;4274;52.012;8.448;2022-07-22T01:42:44;16.30;99.90
8475;DHT22;4274;52.012;8.448;2022-07-22T01:45:10;16.30;99.90
8475;DHT22;4274;52.012;8.448;2022-07-22T01:47:35;16.20;99.90
8475;DHT22;4274;52.012;8.448;2022-07-22T01:50:02;16.20;99.90
8475;DHT22;4274;52.012;8.448;2022-07-22T01:52:28;16.20;99.90
8475;DHT22;4274;52.012;8.448;2022-07-22T01:54:53;16.20;99.90
8475;DHT22;4274;52.012;8.448;2022-07-22T01:57:19;16.20;99.90
8475;DHT22;4274;52.012;8.448;2022-07-22T01:59:44;16.20;99.90
8475;DHT22;4274;52.012;8.448;2022-07-22T02:02:10;16.10;99.90
8475;DHT22;4274;52.012;8.448;2022-07-22T02:04:36;16.10;99.90
8475;DHT22;4274;52.012;8.448;2022-07-22T02:07:01;16.00;99.90
8475;DHT22;4274;52.012;8.448;2022-07-22T02:09:27;16.00;99.90
8475;DHT22;4274;52.012;8.448;2022-07-22T02:11:52;16.00;99.90
8475;DHT22;4274;52.012;8.448;2022-07-22T02:14:18;15.90;99.90
8475;DHT22;4274;52.012;8.448;2022-07-22T02:16:43;15.90;99.90
8475;DHT22;4274;52.012;8.448;2022-07-22T02:19:09;15.90;99.90
8475;DHT22;4274;52.012;8.448;2022-07-22T02:21:35;15.90;99.90
8475;DHT22;4274;52.012;8.448;2022-07-22T02:24:00;15.90;99.90
8475;DHT22;4274;52.012;8.448;2022-07-22T02:26:26;15.80;99.90
8475;DHT22;4274;52.012;8.448;2022-07-22T02:28:52;15.70;99.90
8475;DHT22;4274;52.012;8.448;2022-07-22T02:31:17;15.70;99.90
8475;DHT22;4274;52.012;8.448;2022-07-22T02:33:46;15.60;99.90
8475;DHT22;4274;52.012;8.448;2022-07-22T02:36:11;15.60;99.90
8475;DHT22;4274;52.012;8.448;2022-07-22T02:38:37;15.60;99.90
8475;DHT22;4274;52.012;8.448;2022-07-22T02:41:02;15.60;99.90
8475;DHT22;4274;52.012;8.448;2022-07-22T02:43:28;15.60;99.90
8475;DHT22;4274;52.012;8.448;2022-07-22T02:45:54;15.50;99.90
8475;DHT22;4274;52.012;8.448;2022-07-22T02:48:19;15.60;99.90
8475;DHT22;4274;52.012;8.448;2022-07-22T02:50:48;15.60;99.90
8475;DHT22;4274;52.012;8.448;2022-07-22T02:53:14;15.60;99.90
8475;DHT22;4274;52.012;8.448;2022-07-22T02:55:40;15.60;99.90
8475;DHT22;4274;52.012;8.448;2022-07-22T02:58:07;15.60;99.90
8475;DHT22;4274;52.012;8.448;2022-07-22T03:00:34;15.60;99.90
8475;DHT22;4274;52.012;8.448;2022-07-22T03:03:00;15.50;99.90
8475;DHT22;4274;52.012;8.448;2022-07-22T03:05:26;15.50;99.90
8475;DHT22;4274;52.012;8.448;2022-07-22T03:07:51;15.50;99.90
8475;DHT22;4274;52.012;8.448;2022-07-22T03:10:17;15.50;99.90
8475;DHT22;4274;52.012;8.448;2022-07-22T03:12:43;15.50;99.90
8475;DHT22;4274;52.012;8.448;2022-07-22T03:15:09;15.50;99.90
8475;DHT22;4274;52.012;8.448;2022-07-22T03:17:35;15.50;99.90
8475;DHT22;4274;52.012;8.448;2022-07-22T03:20:11;15.50;99.90
8475;DHT22;4274;52.012;8.448;2022-07-22T03:22:37;15.50;99.90
8475;DHT22;4274;52.012;8.448;2022-07-22T03:25:03;15.50;99.90
8475;DHT22;4274;52.012;8.448;2022-07-22T03:27:28;15.50;99.90
8475;DHT22;4274;52.012;8.448;2022-07-22T03:29:54;15.50;99.90
8475;DHT22;4274;52.012;8.448;2022-07-22T03:32:20;15.50;99.90
8475;DHT22;4274;52.012;8.448;2022-07-22T03:34:45;15.50;99.90
8475;DHT22;4274;52.012;8.448;2022-07-22T03:37:11;15.50;99.90
8475;DHT22;4274;52.012;8.448;2022-07-22T03:39:36;15.50;99.90
8475;DHT22;4274;52.012;8.448;2022-07-22T03:42:02;15.50;99.90
8475;DHT22;4274;52.012;8.448;2022-07-22T03:44:28;15.40;99.90
8475;DHT22;4274;52.012;8.448;2022-07-22T03:46:54;15.50;99.90
8475;DHT22;4274;52.012;8.448;2022-07-22T03:49:19;15.40;99.90
8475;DHT22;4274;52.012;8.448;2022-07-22T03:51:45;15.50;99.90
8475;DHT22;4274;52.012;8.448;2022-07-22T03:54:10;15.50;99.90
8475;DHT22;4274;52.012;8.448;2022-07-22T03:56:36;15.50;99.90
8475;DHT22;4274;52.012;8.448;2022-07-22T03:59:02;15.50;99.90
8475;DHT22;4274;52.012;8.448;2022-07-22T04:01:28;15.50;99.90
8475;DHT22;4274;52.012;8.448;2022-07-22T04:03:54;15.50;99.90
8475;DHT22;4274;52.012;8.448;2022-07-22T04:06:20;15.50;99.90
8475;DHT22;4274;52.012;8.448;2022-07-22T04:08:46;15.50;99.90
8475;DHT22;4274;52.012;8.448;2022-07-22T04:11:11;15.50;99.90
8475;DHT22;4274;52.012;8.448;2022-07-22T04:13:37;15.50;99.90
8475;DHT22;4274;52.012;8.448;2022-07-22T04:16:02;15.50;99.90
8475;DHT22;4274;52.012;8.448;2022-07-22T04:18:30;15.50;99.90
8475;DHT22;4274;52.012;8.448;2022-07-22T04:20:56;15.50;99.90
8475;DHT22;4274;52.012;8.448;2022-07-22T04:23:22;15.50;99.90
8475;DHT22;4274;52.012;8.448;2022-07-22T04:25:47;15.50;99.90
8475;DHT22;4274;52.012;8.448;2022-07-22T04:28:13;15.50;99.90
8475;DHT22;4274;52.012;8.448;2022-07-22T04:30:38;15.50;99.90
8475;DHT22;4274;52.012;8.448;2022-07-22T04:33:04;15.40;99.90
8475;DHT22;4274;52.012;8.448;2022-07-22T04:35:30;15.40;99.90
8475;DHT22;4274;52.012;8.448;2022-07-22T04:37:55;15.50;99.90
8475;DHT22;4274;52.012;8.448;2022-07-22T04:40:21;15.40;99.90
8475;DHT22;4274;52.012;8.448;2022-07-22T04:42:46;15.40;99.90
8475;DHT22;4274;52.012;8.448;2022-07-22T04:45:12;15.40;99.90
8475;DHT22;4274;52.012;8.448;2022-07-22T04:47:38;15.40;99.90
8475;DHT22;4274;52.012;8.448;2022-07-22T04:50:04;15.30;99.90
8475;DHT22;4274;52.012;8.448;2022-07-22T04:52:29;15.30;99.90
8475;DHT22;4274;52.012;8.448;2022-07-22T04:54:55;15.30;99.90
8475;DHT22;4274;52.012;8.448;2022-07-22T04:57:21;15.30;99.90
8475;DHT22;4274;52.012;8.448;2022-07-22T04:59:47;15.30;99.90
8475;DHT22;4274;52.012;8.448;2022-07-22T05:02:12;15.40;99.90
8475;DHT22;4274;52.012;8.448;2022-07-22T05:04:38;15.30;99.90
8475;DHT22;4274;52.012;8.448;2022-07-22T05:07:03;15.40;99.90
8475;DHT22;4274;52.012;8.448;2022-07-22T05:09:29;15.40;99.90
8475;DHT22;4274;52.012;8.448;2022-07-22T05:11:54;15.40;99.90
8475;DHT22;4274;52.012;8.448;2022-07-22T05:14:20;15.40;99.90
8475;DHT22;4274;52.012;8.448;2022-07-22T05:16:46;15.40;99.90
8475;DHT22;4274;52.012;8.448;2022-07-22T05:19:11;15.40;99.90
8475;DHT22;4274;52.012;8.448;2022-07-22T05:21:37;15.40;99.90
8475;DHT22;4274;52.012;8.448;2022-07-22T05:24:03;15.40;99.90
8475;DHT22;4274;52.012;8.448;2022-07-22T05:26:29;15.40;99.90
8475;DHT22;4274;52.012;8.448;2022-07-22T05:28:56;15.40;99.90
8475;DHT22;4274;52.012;8.448;2022-07-22T05:31:22;15.40;99.90
8475;DHT22;4274;52.012;8.448;2022-07-22T05:33:47;15.40;99.90
8475;DHT22;4274;52.012;8.448;2022-07-22T05:36:13;15.40;99.90
8475;DHT22;4274;52.012;8.448;2022-07-22T05:38:39;15.50;99.90
8475;DHT22;4274;52.012;8.448;2022-07-22T05:41:04;15.40;99.90
8475;DHT22;4274;52.012;8.448;2022-07-22T05:43:30;15.40;99.90
8475;DHT22;4274;52.012;8.448;2022-07-22T05:45:55;15.40;99.90
8475;DHT22;4274;52.012;8.448;2022-07-22T05:48:21;15.50;99.90
8475;DHT22;4274;52.012;8.448;2022-07-22T05:50:47;15.40;99.90
8475;DHT22;4274;52.012;8.448;2022-07-22T05:53:13;15.40;99.90
8475;DHT22;4274;52.012;8.448;2022-07-22T05:55:39;15.50;99.90
8475;DHT22;4274;52.012;8.448;2022-07-22T05:58:04;15.40;99.90
8475;DHT22;4274;52.012;8.448;2022-07-22T06:00:30;15.40;99.90
8475;DHT22;4274;52.012;8.448;2022-07-22T06:02:56;15.40;99.90
8475;DHT22;4274;52.012;8.448;2022-07-22T06:05:22;15.50;99.90
8475;DHT22;4274;52.012;8.448;2022-07-22T06:07:48;15.50;99.90
8475;DHT22;4274;52.012;8.448;2022-07-22T06:10:13;15.50;99.90
8475;DHT22;4274;52.012;8.448;2022-07-22T06:12:39;15.50;99.90
8475;DHT22;4274;52.012;8.448;2022-07-22T06:15:05;15.50;99.90
8475;DHT22;4274;52.012;8.448;2022-07-22T06:17:31;15.50;99.90
8475;DHT22;4274;52.012;8.448;2022-07-22T06:19:57;15.50;99.90
8475;DHT22;4274;52.012;8.448;2022-07-22T06:22:22;15.50;99.90
8475;DHT22;4274;52.012;8.448;2022-07-22T06:24:48;15.50;99.90
8475;DHT22;4274;52.012;8.448;2022-07-22T06:27:14;15.50;99.90
8475;DHT22;4274;52.012;8.448;2022-07-22T06:29:39;15.50;99.90
8475;DHT22;4274;52.012;8.448;2022-07-22T06:32:06;15.50;99.90
8475;DHT22;4274;52.012;8.448;2022-07-22T06:34:32;15.50;99.90
8475;DHT22;4274;52.012;8.448;2022-07-22T06:36:58;15.50;99.90
8475;DHT22;4274;52.012;8.448;2022-07-22T06:39:23;15.50;99.90
8475;DHT22;4274;52.012;8.448;2022-07-22T06:41:49;15.60;99.90
8475;DHT22;4274;52.012;8.448;2022-07-22T06:44:14;15.60;99.90
8475;DHT22;4274;52.012;8.448;2022-07-22T06:46:40;15.70;99.90
8475;DHT22;4274;52.012;8.448;2022-07-22T06:49:06;15.70;99.90
8475;DHT22;4274;52.012;8.448;2022-07-22T06:51:32;15.70;99.90
8475;DHT22;4274;52.012;8.448;2022-07-22T06:53:57;15.70;99.90
8475;DHT22;4274;52.012;8.448;2022-07-22T06:56:23;15.70;99.90
8475;DHT22;4274;52.012;8.448;2022-07-22T06:58:48;15.60;99.90
8475;DHT22;4274;52.012;8.448;2022-07-22T07:01:14;15.60;99.90
8475;DHT22;4274;52.012;8.448;2022-07-22T07:03:40;15.60;99.90
8475;DHT22;4274;52.012;8.448;2022-07-22T07:06:10;15.60;99.90
8475;DHT22;4274;52.012;8.448;2022-07-22T07:08:38;15.60;99.90
8475;DHT22;4274;52.012;8.448;2022-07-22T07:11:04;15.60;99.90
8475;DHT22;4274;52.012;8.448;2022-07-22T07:13:30;15.60;99.90
8475;DHT22;4274;52.012;8.448;2022-07-22T07:15:56;15.70;99.90
8475;DHT22;4274;52.012;8.448;2022-07-22T07:18:21;15.80;99.90
8475;DHT22;4274;52.012;8.448;2022-07-22T07:20:47;15.80;99.90
8475;DHT22;4274;52.012;8.448;2022-07-22T07:23:12;15.90;99.90
8475;DHT22;4274;52.012;8.448;2022-07-22T07:25:38;16.00;99.90
8475;DHT22;4274;52.012;8.448;2022-07-22T07:28:04;16.10;99.90
8475;DHT22;4274;52.012;8.448;2022-07-22T07:30:30;16.10;99.90
8475;DHT22;4274;52.012;8.448;2022-07-22T07:32:56;16.10;99.90
8475;DHT22;4274;52.012;8.448;2022-07-22T07:35:21;16.10;99.90
8475;DHT22;4274;52.012;8.448;2022-07-22T07:37:47;16.10;99.90
8475;DHT22;4274;52.012;8.448;2022-07-22T07:40:13;16.10;99.90
8475;DHT22;4274;52.012;8.448;2022-07-22T07:42:39;16.00;99.90
8475;DHT22;4274;52.012;8.448;2022-07-22T07:45:06;16.10;99.90
8475;DHT22;4274;52.012;8.448;2022-07-22T07:47:32;16.10;99.90
8475;DHT22;4274;52.012;8.448;2022-07-22T07:49:57;16.00;99.90
8475;DHT22;4274;52.012;8.448;2022-07-22T07:52:25;16.00;99.90
8475;DHT22;4274;52.012;8.448;2022-07-22T07:54:52;16.00;99.90
8475;DHT22;4274;52.012;8.448;2022-07-22T07:57:21;16.10;99.90
8475;DHT22;4274;52.012;8.448;2022-07-22T07:59:47;16.10;99.90
8475;DHT22;4274;52.012;8.448;2022-07-22T08:02:13;16.20;99.90
8475;DHT22;4274;52.012;8.448;2022-07-22T08:04:38;16.30;99.90
8475;DHT22;4274;52.012;8.448;2022-07-22T08:07:05;16.30;99.90
8475;DHT22;4274;52.012;8.448;2022-07-22T08:09:32;16.50;99.90
8475;DHT22;4274;52.012;8.448;2022-07-22T08:11:58;16.50;99.90
8475;DHT22;4274;52.012;8.448;2022-07-22T08:14:24;16.50;99.90
8475;DHT22;4274;52.012;8.448;2022-07-22T08:16:50;16.60;99.90
8475;DHT22;4274;52.012;8.448;2022-07-22T08:19:16;16.60;99.90
8475;DHT22;4274;52.012;8.448;2022-07-22T08:21:41;16.60;99.90
8475;DHT22;4274;52.012;8.448;2022-07-22T08:24:10;16.60;99.90
8475;DHT22;4274;52.012;8.448;2022-07-22T08:26:36;16.60;99.90
8475;DHT22;4274;52.012;8.448;2022-07-22T08:29:03;16.60;99.90
8475;DHT22;4274;52.012;8.448;2022-07-22T08:31:31;16.60;99.90
8475;DHT22;4274;52.012;8.448;2022-07-22T08:34:00;16.60;99.90
8475;DHT22;4274;52.012;8.448;2022-07-22T08:36:26;16.70;99.90
8475;DHT22;4274;52.012;8.448;2022-07-22T08:38:52;16.80;99.90
8475;DHT22;4274;52.012;8.448;2022-07-22T08:41:18;17.00;99.90
8475;DHT22;4274;52.012;8.448;2022-07-22T08:43:46;17.20;99.90
8475;DHT22;4274;52.012;8.448;2022-07-22T08:46:12;17.30;99.90
8475;DHT22;4274;52.012;8.448;2022-07-22T08:48:39;17.30;99.90
8475;DHT22;4274;52.012;8.448;2022-07-22T08:51:05;17.40;99.90
8475;DHT22;4274;52.012;8.448;2022-07-22T08:53:31;17.50;99.90
8475;DHT22;4274;52.012;8.448;2022-07-22T08:55:57;17.50;99.90
8475;DHT22;4274;52.012;8.448;2022-07-22T08:58:24;17.60;99.90
8475;DHT22;4274;52.012;8.448;2022-07-22T09:06:12;17.70;99.90
8475;DHT22;4274;52.012;8.448;2022-07-22T09:08:58;17.80;99.90
8475;DHT22;4274;52.012;8.448;2022-07-22T09:11:26;17.70;99.90
8475;DHT22;4274;52.012;8.448;2022-07-22T09:13:53;17.50;99.90
8475;DHT22;4274;52.012;8.448;2022-07-22T09:19:05;17.40;99.90
8475;DHT22;4274;52.012;8.448;2022-07-22T09:21:33;17.40;99.90
8475;DHT22;4274;52.012;8.448;2022-07-22T09:23:59;17.40;99.90
8475;DHT22;4274;52.012;8.448;2022-07-22T09:26:32;17.50;99.90
8475;DHT22;4274;52.012;8.448;2022-07-22T09:28:59;17.50;99.90
8475;DHT22;4274;52.012;8.448;2022-07-22T09:31:30;17.60;99.90
8475;DHT22;4274;52.012;8.448;2022-07-22T09:33:57;17.60;99.90
8475;DHT22;4274;52.012;8.448;2022-07-22T09:36:23;17.70;99.90
8475;DHT22;4274;52.012;8.448;2022-07-22T09:38:49;17.80;99.90
8475;DHT22;4274;52.012;8.448;2022-07-22T09:41:15;17.90;99.90
8475;DHT22;4274;52.012;8.448;2022-07-22T09:43:41;17.90;99.90
8475;DHT22;4274;52.012;8.448;2022-07-22T09:46:06;17.90;99.90
8475;DHT22;4274;52.012;8.448;2022-07-22T09:48:33;17.80;99.90
8475;DHT22;4274;52.012;8.448;2022-07-22T09:50:59;17.80;99.90
8475;DHT22;4274;52.012;8.448;2022-07-22T09:53:26;17.60;99.90
8475;DHT22;4274;52.012;8.448;2022-07-22T09:55:56;17.50;99.90
8475;DHT22;4274;52.012;8.448;2022-07-22T09:58:23;17.40;99.90
8475;DHT22;4274;52.012;8.448;2022-07-22T10:00:49;17.30;99.90
8475;DHT22;4274;52.012;8.448;2022-07-22T10:03:30;17.30;99.90
8475;DHT22;4274;52.012;8.448;2022-07-22T10:05:57;17.30;99.90
8475;DHT22;4274;52.012;8.448;2022-07-22T10:08:25;17.30;99.90
8475;DHT22;4274;52.012;8.448;2022-07-22T10:10:52;17.30;99.90
8475;DHT22;4274;52.012;8.448;2022-07-22T10:13:18;17.40;99.90
8475;DHT22;4274;52.012;8.448;2022-07-22T10:15:44;17.50;99.90
8475;DHT22;4274;52.012;8.448;2022-07-22T10:18:15;17.50;99.90
8475;DHT22;4274;52.012;8.448;2022-07-22T10:20:41;17.60;99.90
8475;DHT22;4274;52.012;8.448;2022-07-22T10:23:09;17.70;99.90
8475;DHT22;4274;52.012;8.448;2022-07-22T10:25:55;17.80;99.90
8475;DHT22;4274;52.012;8.448;2022-07-22T10:28:28;17.90;99.90
8475;DHT22;4274;52.012;8.448;2022-07-22T10:31:22;18.00;99.90
8475;DHT22;4274;52.012;8.448;2022-07-22T10:33:54;18.10;99.90
8475;DHT22;4274;52.012;8.448;2022-07-22T10:36:37;18.10;99.90
8475;DHT22;4274;52.012;8.448;2022-07-22T10:39:07;18.10;99.90
8475;DHT22;4274;52.012;8.448;2022-07-22T10:41:37;18.10;99.90
8475;DHT22;4274;52.012;8.448;2022-07-22T10:44:04;18.00;99.90
8475;DHT22;4274;52.012;8.448;2022-07-22T10:49:16;18.00;99.90
8475;DHT22;4274;52.012;8.448;2022-07-22T10:54:33;17.80;99.90
8475;DHT22;4274;52.012;8.448;2022-07-22T10:57:00;17.80;99.90
8475;DHT22;4274;52.012;8.448;2022-07-22T10:59:26;17.70;99.90
8475;DHT22;4274;52.012;8.448;2022-07-22T11:01:52;17.70;99.90
8475;DHT22;4274;52.012;8.448;2022-07-22T11:04:25;17.60;99.90
8475;DHT22;4274;52.012;8.448;2022-07-22T11:06:56;17.60;99.90
8475;DHT22;4274;52.012;8.448;2022-07-22T11:09:27;17.60;99.90
8475;DHT22;4274;52.012;8.448;2022-07-22T11:11:55;17.60;99.90
8475;DHT22;4274;52.012;8.448;2022-07-22T11:14:30;17.60;99.90
8475;DHT22;4274;52.012;8.448;2022-07-22T11:17:07;17.60;99.90
8475;DHT22;4274;52.012;8.448;2022-07-22T11:19:34;17.60;99.90
8475;DHT22;4274;52.012;8.448;2022-07-22T11:22:10;17.70;99.90
8475;DHT22;4274;52.012;8.448;2022-07-22T11:24:37;17.80;99.90
8475;DHT22;4274;52.012;8.448;2022-07-22T11:27:04;17.80;99.90
8475;DHT22;4274;52.012;8.448;2022-07-22T11:29:36;17.90;99.90
8475;DHT22;4274;52.012;8.448;2022-07-22T11:32:07;17.90;99.90
8475;DHT22;4274;52.012;8.448;2022-07-22T11:34:35;17.90;99.90
8475;DHT22;4274;52.012;8.448;2022-07-22T11:37:01;17.90;99.90
8475;DHT22;4274;52.012;8.448;2022-07-22T11:39:28;18.00;99.90
8475;DHT22;4274;52.012;8.448;2022-07-22T11:41:56;18.00;99.90
8475;DHT22;4274;52.012;8.448;2022-07-22T11:44:25;18.10;99.90
8475;DHT22;4274;52.012;8.448;2022-07-22T11:46:51;18.10;99.90
8475;DHT22;4274;52.012;8.448;2022-07-22T11:49:20;18.10;99.90
8475;DHT22;4274;52.012;8.448;2022-07-22T11:51:46;18.10;99.90
8475;DHT22;4274;52.012;8.448;2022-07-22T11:54:13;18.10;99.90
8475;DHT22;4274;52.012;8.448;2022-07-22T11:56:39;18.20;99.90
8475;DHT22;4274;52.012;8.448;2022-07-22T11:59:06;18.20;99.90
8475;DHT22;4274;52.012;8.448;2022-07-22T12:01:34;18.30;99.90
8475;DHT22;4274;52.012;8.448;2022-07-22T12:04:05;18.40;99.90
8475;DHT22;4274;52.012;8.448;2022-07-22T12:06:33;18.50;99.90
8475;DHT22;4274;52.012;8.448;2022-07-22T12:11:39;18.80;99.90
8475;DHT22;4274;52.012;8.448;2022-07-22T12:14:10;18.90;99.90
8475;DHT22;4274;52.012;8.448;2022-07-22T12:16:36;19.00;99.90
8475;DHT22;4274;52.012;8.448;2022-07-22T12:19:04;19.00;99.90
8475;DHT22;4274;52.012;8.448;2022-07-22T12:21:36;19.10;99.90
8475;DHT22;4274;52.012;8.448;2022-07-22T12:26:47;18.90;99.90
8475;DHT22;4274;52.012;8.448;2022-07-22T12:31:52;18.90;99.90
8475;DHT22;4274;52.012;8.448;2022-07-22T12:34:32;18.80;99.90
8475;DHT22;4274;52.012;8.448;2022-07-22T12:37:00;18.80;99.90
8475;DHT22;4274;52.012;8.448;2022-07-22T12:39:28;18.90;99.90
8475;DHT22;4274;52.012;8.448;2022-07-22T12:41:54;19.00;99.90
8475;DHT22;4274;52.012;8.448;2022-07-22T12:44:22;19.00;99.90
8475;DHT22;4274;52.012;8.448;2022-07-22T12:46:51;19.10;99.90
8475;DHT22;4274;52.012;8.448;2022-07-22T12:49:22;19.10;99.90
8475;DHT22;4274;52.012;8.448;2022-07-22T12:54:36;19.10;99.90
8475;DHT22;4274;52.012;8.448;2022-07-22T12:57:02;19.10;99.90
8475;DHT22;4274;52.012;8.448;2022-07-22T12:59:28;19.10;99.90
8475;DHT22;4274;52.012;8.448;2022-07-22T13:01:53;19.00;99.90
8475;DHT22;4274;52.012;8.448;2022-07-22T13:04:19;19.10;99.90
8475;DHT22;4274;52.012;8.448;2022-07-22T13:06:44;19.10;99.90
8475;DHT22;4274;52.012;8.448;2022-07-22T13:09:10;19.20;99.90
8475;DHT22;4274;52.012;8.448;2022-07-22T13:11:36;19.30;99.90
8475;DHT22;4274;52.012;8.448;2022-07-22T13:14:05;19.30;99.90
8475;DHT22;4274;52.012;8.448;2022-07-22T13:16:32;19.30;99.90
8475;DHT22;4274;52.012;8.448;2022-07-22T13:18:57;19.30;99.90
8475;DHT22;4274;52.012;8.448;2022-07-22T13:21:23;19.30;99.90
8475;DHT22;4274;52.012;8.448;2022-07-22T13:23:48;19.30;99.90
8475;DHT22;4274;52.012;8.448;2022-07-22T13:26:14;19.40;99.90
8475;DHT22;4274;52.012;8.448;2022-07-22T13:28:40;19.40;99.90
8475;DHT22;4274;52.012;8.448;2022-07-22T13:31:05;19.50;99.90
8475;DHT22;4274;52.012;8.448;2022-07-22T13:33:31;19.50;99.90
8475;DHT22;4274;52.012;8.448;2022-07-22T13:35:56;19.40;99.90
8475;DHT22;4274;52.012;8.448;2022-07-22T13:38:22;19.40;99.90
8475;DHT22;4274;52.012;8.448;2022-07-22T13:40:48;19.30;99.90
8475;DHT22;4274;52.012;8.448;2022-07-22T13:43:18;19.30;99.90
8475;DHT22;4274;52.012;8.448;2022-07-22T13:45:44;19.30;99.90
8475;DHT22;4274;52.012;8.448;2022-07-22T13:48:09;19.30;99.90
8475;DHT22;4274;52.012;8.448;2022-07-22T13:50:35;19.30;99.90
8475;DHT22;4274;52.012;8.448;2022-07-22T13:53:01;19.30;99.90
8475;DHT22;4274;52.012;8.448;2022-07-22T13:55:26;19.30;99.90
8475;DHT22;4274;52.012;8.448;2022-07-22T13:57:52;19.20;99.90
8475;DHT22;4274;52.012;8.448;2022-07-22T14:00:18;19.10;99.90
8475;DHT22;4274;52.012;8.448;2022-07-22T14:02:44;19.10;99.90
8475;DHT22;4274;52.012;8.448;2022-07-22T14:05:10;19.00;99.90
8475;DHT22;4274;52.012;8.448;2022-07-22T14:07:36;19.10;99.90
8475;DHT22;4274;52.012;8.448;2022-07-22T14:10:03;19.00;99.90
8475;DHT22;4274;52.012;8.448;2022-07-22T14:12:29;19.00;99.90
8475;DHT22;4274;52.012;8.448;2022-07-22T14:14:54;19.10;99.90
8475;DHT22;4274;52.012;8.448;2022-07-22T14:17:20;19.10;99.90
8475;DHT22;4274;52.012;8.448;2022-07-22T14:19:46;19.10;99.90
8475;DHT22;4274;52.012;8.448;2022-07-22T14:22:11;19.10;99.90
8475;DHT22;4274;52.012;8.448;2022-07-22T14:24:37;19.20;99.90
8475;DHT22;4274;52.012;8.448;2022-07-22T14:27:03;19.10;99.90
8475;DHT22;4274;52.012;8.448;2022-07-22T14:29:28;19.00;99.90
8475;DHT22;4274;52.012;8.448;2022-07-22T14:31:54;19.00;99.90
8475;DHT22;4274;52.012;8.448;2022-07-22T14:34:19;19.00;99.90
8475;DHT22;4274;52.012;8.448;2022-07-22T14:36:45;19.20;99.90
8475;DHT22;4274;52.012;8.448;2022-07-22T14:39:11;19.20;99.90
8475;DHT22;4274;52.012;8.448;2022-07-22T14:41:36;19.20;99.90
8475;DHT22;4274;52.012;8.448;2022-07-22T14:44:02;19.20;99.90
8475;DHT22;4274;52.012;8.448;2022-07-22T14:46:28;19.30;99.90
8475;DHT22;4274;52.012;8.448;2022-07-22T14:48:53;19.20;99.90
8475;DHT22;4274;52.012;8.448;2022-07-22T14:51:20;19.20;99.90
8475;DHT22;4274;52.012;8.448;2022-07-22T14:53:46;19.10;99.90
8475;DHT22;4274;52.012;8.448;2022-07-22T14:56:12;19.10;99.90
8475;DHT22;4274;52.012;8.448;2022-07-22T14:58:38;19.20;99.90
8475;DHT22;4274;52.012;8.448;2022-07-22T15:01:03;19.20;99.90
8475;DHT22;4274;52.012;8.448;2022-07-22T15:03:29;19.20;99.90
8475;DHT22;4274;52.012;8.448;2022-07-22T15:05:54;19.30;99.90
8475;DHT22;4274;52.012;8.448;2022-07-22T15:08:20;19.30;99.90
8475;DHT22;4274;52.012;8.448;2022-07-22T15:10:46;19.30;99.90
8475;DHT22;4274;52.012;8.448;2022-07-22T15:13:12;19.20;99.90
8475;DHT22;4274;52.012;8.448;2022-07-22T15:15:38;19.20;99.90
8475;DHT22;4274;52.012;8.448;2022-07-22T15:18:04;19.20;99.90
8475;DHT22;4274;52.012;8.448;2022-07-22T15:20:30;19.20;99.90
8475;DHT22;4274;52.012;8.448;2022-07-22T15:22:55;19.20;99.90
8475;DHT22;4274;52.012;8.448;2022-07-22T15:25:21;19.20;99.90
8475;DHT22;4274;52.012;8.448;2022-07-22T15:27:51;19.30;99.90
8475;DHT22;4274;52.012;8.448;2022-07-22T15:30:17;19.50;99.90
8475;DHT22;4274;52.012;8.448;2022-07-22T15:32:42;19.60;99.90
8475;DHT22;4274;52.012;8.448;2022-07-22T15:35:08;19.70;99.90
8475;DHT22;4274;52.012;8.448;2022-07-22T15:37:34;19.80;99.90
8475;DHT22;4274;52.012;8.448;2022-07-22T15:40:00;19.90;99.90
8475;DHT22;4274;52.012;8.448;2022-07-22T15:42:25;19.90;99.90
8475;DHT22;4274;52.012;8.448;2022-07-22T15:44:51;19.90;99.90
8475;DHT22;4274;52.012;8.448;2022-07-22T15:47:17;19.80;99.90
8475;DHT22;4274;52.012;8.448;2022-07-22T15:49:43;19.90;99.90
8475;DHT22;4274;52.012;8.448;2022-07-22T15:52:08;19.90;99.90
8475;DHT22;4274;52.012;8.448;2022-07-22T15:54:34;19.90;99.90
8475;DHT22;4274;52.012;8.448;2022-07-22T15:57:02;19.90;99.90
8475;DHT22;4274;52.012;8.448;2022-07-22T15:59:47;19.90;99.90
8475;DHT22;4274;52.012;8.448;2022-07-22T16:02:14;19.80;99.90
8475;DHT22;4274;52.012;8.448;2022-07-22T16:04:39;19.80;99.90
8475;DHT22;4274;52.012;8.448;2022-07-22T16:07:05;19.80;99.90
8475;DHT22;4274;52.012;8.448;2022-07-22T16:09:31;19.80;99.90
8475;DHT22;4274;52.012;8.448;2022-07-22T16:11:57;19.70;99.90
8475;DHT22;4274;52.012;8.448;2022-07-22T16:14:23;19.60;99.90
8475;DHT22;4274;52.012;8.448;2022-07-22T16:16:49;19.50;99.90
8475;DHT22;4274;52.012;8.448;2022-07-22T16:19:14;19.50;99.90
8475;DHT22;4274;52.012;8.448;2022-07-22T16:21:40;19.40;99.90